Blackfoot, Montana
Current Conditions -  °F | °C
As of 11:56 AM on Sunday 23 Nov 2014 (Local Time) from KCTB Reporting Station
Clear Clear  
Wind Chill: 30°   Ceiling: Unl
Heat Index: 41°   Visibility: 10mi
Dew Point: 17°   Wind: 31mph
Humidity: 38%   Direction: 260°W
Pressure: 29.84"   Gusts: 38mph
Location:  48.5484°N, 112.952°W
Report Text: KCTB 231856Z AUTO 26027G33KT 10SM CLR 05/M08 A2984 RMK AO2 PK WND 26034/1757 SLP124 T00501083
Loading
Personal Weather Stations






























Interactive Weather Map New forecast layout! Learn more

10-Day Weather Forecast

Advertisements
Track Severe Weather on mobile